• Join FlightAware (Why Join?)
  • Login
  • US Flag 
12:41PM EST


 

Airport Tracker/Info


-or-


 

Live Flight TrackerFlight Track Log ✈ SKW6290 ✈ 21-Sep-2013 ✈ KPSP - KSFO

Flight Track Log - Related Links

Times and Time Zones

All times are in EDT time to prevent confusion due to time zone crossing. See the SKW6290 flight status page for this flight to view local times or setup timezone preferences in your user account.

Time Position Orientation Groundspeed Altitude Reporting Facility
EDT Latitude Longitude Course Direction KTS MPH feet Rate Location/Type
09:08PM 33.9017 -116.5636 329° Northwest 218 251 28,000  Level Los Angeles Center
09:09PM 34.0240 -116.7848 338° Northwest  Level Estimated
09:09PM 33.9408 -116.4969 55° Northeast 275 316 28,000  Level Los Angeles Center
09:10PM 34.0887 -116.8778 342° North  Level Estimated
09:10PM 33.9694 -116.4389 59° Northeast 259 298 8,700  Level Los Angeles Center
09:11PM 34.1533 -116.9709 342° North  Level Estimated
09:11PM 34.0417 -116.4669 342° North 282 325 11,100  Level Los Angeles Center
09:12PM 34.2178 -117.0642 270° West  Level Estimated
09:12PM 34.1031 -116.5181 325° Northwest 271 312 12,000  Level Los Angeles Center
09:13PM 34.1875 -116.5533 341° North 328 377 13,100 1,080 Climbing Los Angeles Center
09:14PM 34.3003 -116.5964 342° North 354 407 14,300 1,020 Climbing Los Angeles Center
09:15PM 34.3958 -116.6350 342° North 363 418 15,200 1,020 Climbing Los Angeles Center
09:16PM 34.4458 -116.7331 302° West 360 414 16,500 1,080 Climbing Los Angeles Center
09:17PM 34.4767 -116.8200 293° West 357 411 17,400 1,140 Climbing Los Angeles Center
09:18PM 34.5269 -116.9528 295° West 361 415 18,900 1,260 Climbing Los Angeles Center
09:19PM 34.5692 -117.0644 295° West 365 420 20,000 1,020 Climbing Los Angeles Center
09:20PM 34.6119 -117.1761 295° West 364 419 21,000 840 Climbing Los Angeles Center
09:21PM 34.6550 -117.2917 294° West 370 426 21,800 840 Climbing Los Angeles Center
09:22PM 34.6975 -117.4072 294° West 374 430 22,800 1,080 Climbing Los Angeles Center
09:23PM 34.7492 -117.5461 294° West 375 432 24,100 1,080 Climbing Los Angeles Center
09:24PM 34.7931 -117.6633 295° West 377 434 25,100 960 Climbing Los Angeles Center
09:25PM 34.8350 -117.7792 294° West 372 428 26,100 960 Climbing Los Angeles Center
09:26PM 34.8783 -117.8914 295° West 363 418 27,100 900 Climbing Los Angeles Center
09:27PM 34.9194 -118.0028 294° West 360 414 28,000 420 Climbing Los Angeles Center
09:28PM 34.9603 -118.1164 294° West 365 420 28,000  Level Los Angeles Center
09:29PM 35.0039 -118.2356 294° West 382 440 28,000  Level Los Angeles Center
09:30PM 35.0483 -118.3564 294° West 391 450 28,000  Level Los Angeles Center
09:31PM 35.0928 -118.4797 294° West 396 456 28,000  Level Los Angeles Center
09:32PM 35.1361 -118.6069 293° West 400 460 28,000  Level Los Angeles Center
09:33PM 35.1772 -118.7322 292° West 400 460 28,000  Level Los Angeles Center
09:34PM 35.2269 -118.8811 292° West 396 456 28,000  Level Los Angeles Center
09:35PM 35.2672 -119.0058 292° West 401 461 28,000  Level Los Angeles Center
09:36PM 35.3064 -119.1303 291° West 395 455 28,000  Level Los Angeles Center
09:37PM 35.3464 -119.2569 291° West 397 457 28,000  Level Los Angeles Center
09:38PM 35.3783 -119.3572 291° West 397 457 28,000  Level Los Angeles Center
09:39PM 35.4261 -119.5106 291° West 400 460 28,000  Level Los Angeles Center
09:40PM 35.4658 -119.6361 291° West 399 459 28,000  Level Los Angeles Center
09:41PM 35.5050 -119.7606 291° West 396 456 28,000  Level Los Angeles Center
09:42PM 35.5511 -119.9122 291° West 398 458 28,000  Level Los Angeles Center
09:43PM 35.5908 -120.0378 291° West 397 457 28,000  Level Los Angeles Center
09:44PM 35.6292 -120.1636 291° West 397 457 28,000  Level Los Angeles Center
09:45PM 35.6672 -120.2886 291° West 398 458 28,000  Level Los Angeles Center
09:46PM 35.7003 -120.3881 292° West 397 457 28,000  Level Los Angeles Center
09:47PM 35.7297 -120.5389 284° West 384 442 28,000  Level Oakland Center
09:48PM 35.7403 -120.6661 276° West 379 436 28,000  Level Oakland Center
09:49PM 35.7517 -120.7919 276° West 375 432 28,000  Level Oakland Center
09:50PM 35.7631 -120.9175 276° West 372 428 28,000  Level Oakland Center
09:51PM 35.7733 -121.0403 276° West 366 421 28,000  Level Oakland Center
09:52PM 35.8467 -121.1386 313° West 401 461 28,000  Level Oakland Center
09:53PM 35.9400 -121.2244 323° Northwest 415 478 28,000  Level Oakland Center
09:54PM 36.0333 -121.3097 324° Northwest 416 479 28,000  Level Oakland Center
09:55PM 36.1292 -121.3942 325° Northwest 421 484 28,000  Level Oakland Center
09:56PM 36.2233 -121.4786 324° Northwest 419 482 28,000  Level Oakland Center
09:57PM 36.3167 -121.5658 323° Northwest 420 483 28,000 -240 Level Oakland Center
09:58PM 36.4111 -121.6542 323° Northwest 424 488 27,600 -1,740 Descending Oakland Center
09:59PM 36.5067 -121.7389 325° Northwest 421 484 24,500 -3,300 Descending Oakland Center
10:00PM 36.6000 -121.8333 321° Northwest 389 448 21,400 -2,460 Descending Northern Cal TRACON
10:01PM 36.6667 -121.9000 321° Northwest 316 364 20,000 -1,260 Descending Northern Cal TRACON
10:02PM 36.7333 -121.9500 329° Northwest 282 325 18,900 -1,740 Descending Northern Cal TRACON
10:03PM 36.8167 -121.9833 342° North 306 352 16,400 -2,340 Descending Northern Cal TRACON
10:04PM 36.9000 -122.0000 351° North 303 349 14,100 -2,340 Descending Northern Cal TRACON
10:05PM 36.9833 -122.0333 342° North 300 345 11,800 -2,040 Descending Northern Cal TRACON
10:06PM 37.0667 -122.0500 351° North 281 323 10,100 -900 Descending Northern Cal TRACON
10:07PM 37.1333 -122.0667 349° North 230 265 10,000 -780 Descending Northern Cal TRACON
10:08PM 37.1667 -122.1167 310° West 216 249 8,600 -960 Descending Northern Cal TRACON
10:09PM 37.2000 -122.1833 302° West 215 247 8,100 -300 Descending Northern Cal TRACON
10:10PM 37.2500 -122.2333 321° Northwest 220 253 8,100 -600 Level Northern Cal TRACON
10:11PM 37.3000 -122.2500 345° North 219 252 6,900 -1,020 Descending Northern Cal TRACON
10:12PM 37.3500 -122.2167 28° Northeast 242 278 6,100 -900 Descending Northern Cal TRACON
10:13PM 37.3833 -122.1333 63° Northeast 245 282 5,100 -900 Descending Northern Cal TRACON
10:14PM 37.4333 -122.1000 28° Northeast 210 242 4,300 -600 Descending Northern Cal TRACON
10:15PM 37.4667 -122.1000 360° North 167 192 4,000 -480 Descending Northern Cal TRACON
10:16PM 37.5167 -122.1333 332° Northwest 164 189 3,400 -720 Descending Northern Cal TRACON
10:18PM 37.5333 -122.1833 293° West 156 180 2,500 -540 Descending Northern Cal TRACON
10:18PM 37.5500 -122.2167 302° West 133 153 2,400 -420 Descending Northern Cal TRACON
10:19PM 37.5667 -122.2667 293° West 127 146 1,800 -660 Descending Northern Cal TRACON
10:20PM 37.5833 -122.3000 302° West 129 148 1,100 -720 Descending Northern Cal TRACON
10:21PM 37.6000 -122.3333 302° West 131 151 400 -720 Descending Northern Cal TRACON